Аэропорт: Одесса. Одесса

ICAO: UKOO

METAR:
2018/11/19 10:00
UKOO 191000Z 08011G16MPS 020V110 6000 -SHRA BKN006 BKN013CB 04/04 Q1016 R16/290054 NOSIG
METAR:
2018/11/19 06:15
TAF UKOO 190506Z 1906/2006 08010G17MPS 2100 -SHRA BR SCT004 BKN007 SCT015CB TX05/1911Z TN00/2003Z PROB40 
      TEMPO 1906/1918 0700 +TSRA VV002 
      BECMG 1920/1921 34007G14MPS